Aérodrome :
LOGIN :

S'inscrire | Disclaimer

   EN    FR    IT 

 










Légende :    VFR   VFR Marginal   IFR   IFR Intensif   IFR Très Intensif
Visi : 
Plafond : 
>= 8 km
>= 3000ft
5 à 8 km
1000 à 3000 ft
1500m à 5 km
500 à 1000 ft
800 à 1500m
200 à 500 ft
< 800m
< 200 ft
Symboles :   Orages  Brouillard  Fortes neiges  Fortes précipitations  Vent > 20 kt
SIGMETs :   Divers  Orages  Givrage  Turbulence  Onde Orograph.  Cendres Volcan.






- Altitude de l'aérodrome : 245 ft
- Code IATA : BIQ


LFBZ - Biarritz

DERNIER METAR :
  • 190030Z AUTO 24008KT 200V280 9999 -RA SCT016/// BKN021/// BKN029/// ///CB 17/15 Q1019 TEMPO 27015G25KT 4000 SHRA

METARs EXPIRÉS :
  • 190000Z AUTO 24008KT 190V280 9999 BKN016/// BKN022/// BKN027/// ///CB 16/14 Q1019 TEMPO 27015G25KT 4000 SHRA
  • 182330Z AUTO 23007KT 190V290 9999 FEW008/// BKN014/// BKN021/// ///CB 16/14 Q1019 TEMPO 27015G25KT 4000 SHRA FEW020CB BKN025TCU
  • 182300Z AUTO 24005KT 190V290 5000 BR BKN014/// BKN027/// BKN032/// ///TCU 16/14 Q1019 TEMPO 27015G25KT SHRA FEW020CB BKN025TCU
  • 182230Z AUTO VRB04KT 9999 FEW016/// SCT025/// BKN030/// ///CB 16/14 Q1019 TEMPO 27015G25KT 4000 SHRA

TAF TAF LFBZ
Valide du 19 à 00h jusqu'au 20 à 00h UTC


182300Z 1900/1924 26010KT 9999 SCT020 BKN030
TEMPO 1900/1924 27015G25KT 4000 SHRA FEW020CB BKN025TCU
PROB30
TEMPO 1920/1924 2000 TSRA BKN010 BKN020CB



MET'MAP, la Météo Aéronautique d'un coup d'oeil ! - Copyright ORBIFLY Décembre 2007 - Disclaimer

ORBIFLY MET'MAP TEAM :

Programmation & Développement : Alexandra Zaïnal
Sur une idée originale de : Baudouin d'Aumeries
Assistance à la programmation : Marc-Olivier Méhu
Soutien technique & logistique : Manuel Goepfert

Contact : metmap@orbifly.com




SOURCES & CREDITS :

   NOAA